createdAt,value
2023-01-01T00:00:00.776Z,62
2023-01-01T00:00:32.332Z,62
2023-01-01T00:01:04.352Z,62
2023-01-01T00:01:36.476Z,62
2023-01-01T00:02:08.297Z,62
2023-01-01T00:02:40.279Z,62
2023-01-01T00:03:12.222Z,62
2023-01-01T00:03:44.317Z,62
2023-01-01T00:04:16.097Z,62
2023-01-01T00:04:48.119Z,62
2023-01-01T00:05:20.167Z,62
2023-01-01T00:05:52.188Z,62
2023-01-01T00:06:24.011Z,62
2023-01-01T00:06:56.054Z,62
2023-01-01T00:07:28.028Z,62
2023-01-01T00:08:04.480Z,62
2023-01-01T00:08:31.954Z,62
2023-01-01T00:09:03.985Z,61
2023-01-01T00:09:36.019Z,62
2023-01-01T00:10:08.089Z,62
2023-01-01T00:10:39.867Z,62
2023-01-01T00:11:11.857Z,62
2023-01-01T00:11:43.938Z,62
2023-01-01T00:12:15.802Z,61
2023-01-01T00:12:47.840Z,61
2023-01-01T00:13:19.813Z,61
2023-01-01T00:13:51.796Z,62
2023-01-01T00:14:23.645Z,62
2023-01-01T00:14:55.635Z,62
2023-01-01T00:15:27.940Z,62
2023-01-01T00:15:59.761Z,61
2023-01-01T00:16:31.606Z,62
2023-01-01T00:17:03.607Z,62
2023-01-01T00:17:35.796Z,62
2023-01-01T00:18:07.643Z,62
2023-01-01T00:18:39.507Z,62
2023-01-01T00:19:11.564Z,62
2023-01-01T00:19:43.543Z,62
2023-01-01T00:20:15.607Z,62
2023-01-01T00:20:47.406Z,62
2023-01-01T00:21:19.441Z,61
2023-01-01T00:21:51.422Z,62
2023-01-01T00:22:56.264Z,62
2023-01-01T00:23:27.324Z,61
2023-01-01T00:23:59.361Z,61
2023-01-01T00:24:31.398Z,62
2023-01-01T00:25:03.254Z,62
2023-01-01T00:25:35.244Z,61
2023-01-01T00:26:07.704Z,62
2023-01-01T00:26:39.336Z,62
2023-01-01T00:27:11.100Z,61
2023-01-01T00:27:43.176Z,61
2023-01-01T00:28:15.186Z,61
2023-01-01T00:28:47.192Z,61
2023-01-01T00:29:19.052Z,61
2023-01-01T00:29:51.030Z,61
2023-01-01T00:30:23.256Z,61
2023-01-01T00:30:55.113Z,61
2023-01-01T00:31:27.075Z,61
2023-01-01T00:31:59.096Z,61
2023-01-01T00:32:31.073Z,61
2023-01-01T00:33:03.043Z,61
2023-01-01T00:33:35.163Z,61
2023-01-01T00:34:06.938Z,61
2023-01-01T00:34:38.908Z,61
2023-01-01T00:35:10.956Z,61
2023-01-01T00:35:42.824Z,60
2023-01-01T00:36:14.801Z,60
2023-01-01T00:36:46.892Z,61
2023-01-01T00:37:18.856Z,61
2023-01-01T00:37:50.698Z,60
2023-01-01T00:38:22.731Z,60
2023-01-01T00:38:54.767Z,61
2023-01-01T00:39:26.784Z,61
2023-01-01T00:39:58.566Z,61
2023-01-01T00:40:30.629Z,61
2023-01-01T00:41:02.635Z,61
2023-01-01T00:41:34.875Z,61
2023-01-01T00:42:06.576Z,61
2023-01-01T00:42:38.533Z,61
2023-01-01T00:43:10.611Z,60
2023-01-01T00:43:42.422Z,60
2023-01-01T00:44:14.487Z,60
2023-01-01T00:44:46.524Z,61
2023-01-01T00:45:21.816Z,61
2023-01-01T00:45:50.456Z,61
2023-01-01T00:46:22.526Z,61
2023-01-01T00:46:54.420Z,61
2023-01-01T00:47:26.476Z,61
2023-01-01T00:47:58.245Z,61
2023-01-01T00:48:35.311Z,61
2023-01-01T00:49:02.326Z,61
2023-01-01T00:49:34.394Z,61
2023-01-01T00:50:06.227Z,61
2023-01-01T00:50:38.205Z,62
2023-01-01T00:51:10.244Z,61
2023-01-01T00:51:42.271Z,62
2023-01-01T00:52:14.136Z,62
2023-01-01T00:52:46.131Z,61
2023-01-01T00:53:18.176Z,61
2023-01-01T00:53:50.156Z,61
2023-01-01T00:54:21.998Z,61
2023-01-01T00:54:54.137Z,61
2023-01-01T00:55:26.022Z,61
2023-01-01T00:55:58.089Z,61
2023-01-01T00:56:29.887Z,61
2023-01-01T00:57:02.027Z,61
2023-01-01T00:57:34.366Z,61
2023-01-01T00:58:06.020Z,61
2023-01-01T00:58:37.845Z,61
2023-01-01T00:59:09.819Z,61
2023-01-01T00:59:41.867Z,61
2023-01-01T01:00:14.285Z,61
2023-01-01T01:00:45.721Z,61
2023-01-01T01:01:17.937Z,61
2023-01-01T01:01:50.014Z,61
2023-01-01T01:02:22.032Z,61
2023-01-01T01:02:53.653Z,61
2023-01-01T01:03:25.885Z,61
2023-01-01T01:03:57.700Z,62
2023-01-01T01:04:29.683Z,61
2023-01-01T01:05:01.780Z,61
2023-01-01T01:05:33.554Z,62
2023-01-01T01:06:05.585Z,61
2023-01-01T01:06:37.664Z,61
2023-01-01T01:07:09.479Z,61
2023-01-01T01:07:41.548Z,62
2023-01-01T01:08:13.577Z,62
2023-01-01T01:08:45.412Z,62
2023-01-01T01:09:17.376Z,62
2023-01-01T01:09:49.532Z,62
2023-01-01T01:10:22.045Z,62
2023-01-01T01:10:53.289Z,62
2023-01-01T01:11:25.282Z,62
2023-01-01T01:12:18.237Z,62
2023-01-01T01:12:29.428Z,62
2023-01-01T01:13:01.173Z,62
2023-01-01T01:13:33.272Z,62
2023-01-01T01:14:05.265Z,62
2023-01-01T01:14:37.318Z,62
2023-01-01T01:15:09.474Z,62
2023-01-01T01:15:41.155Z,62
2023-01-01T01:16:13.330Z,62
2023-01-01T01:16:45.303Z,62
2023-01-01T01:17:17.081Z,62
2023-01-01T01:17:49.047Z,62
2023-01-01T01:18:21.066Z,62
2023-01-01T01:18:52.943Z,62
2023-01-01T01:19:25.046Z,62
2023-01-01T01:19:57.016Z,63
2023-01-01T01:20:29.034Z,62
2023-01-01T01:21:01.068Z,63
2023-01-01T01:21:32.848Z,63
2023-01-01T01:22:05.024Z,62
2023-01-01T01:22:36.972Z,62
2023-01-01T01:23:08.801Z,62
2023-01-01T01:23:40.798Z,62
2023-01-01T01:24:12.874Z,62
2023-01-01T01:24:44.895Z,62
2023-01-01T01:25:16.693Z,62
2023-01-01T01:25:48.676Z,63
2023-01-01T01:26:20.760Z,63
2023-01-01T01:26:52.799Z,63
2023-01-01T01:27:24.616Z,63
2023-01-01T01:27:56.646Z,63
2023-01-01T01:28:28.657Z,63
2023-01-01T01:29:00.685Z,63
2023-01-01T01:29:32.527Z,63
2023-01-01T01:30:04.799Z,62
2023-01-01T01:30:36.585Z,63
2023-01-01T01:31:08.688Z,62
2023-01-01T01:31:40.442Z,62
2023-01-01T01:32:12.515Z,62
2023-01-01T01:32:44.530Z,62
2023-01-01T01:33:16.497Z,62
2023-01-01T01:33:48.359Z,62
2023-01-01T01:34:27.227Z,61
2023-01-01T01:34:52.418Z,61
2023-01-01T01:35:24.428Z,61
2023-01-01T01:35:56.252Z,61
2023-01-01T01:36:28.271Z,62
2023-01-01T01:37:00.277Z,62
2023-01-01T01:37:32.356Z,62
2023-01-01T01:38:04.165Z,61
2023-01-01T01:38:36.215Z,61
2023-01-01T01:39:08.168Z,61
2023-01-01T01:39:40.295Z,61
2023-01-01T01:40:12.791Z,61
2023-01-01T01:40:44.152Z,61
2023-01-01T01:41:27.242Z,61
2023-01-01T01:41:48.036Z,61
2023-01-01T01:42:20.005Z,62
2023-01-01T01:42:51.990Z,62
2023-01-01T01:43:24.040Z,61
2023-01-01T01:43:56.048Z,62
2023-01-01T01:44:27.913Z,62
2023-01-01T01:44:59.952Z,62
2023-01-01T01:45:33.597Z,62
2023-01-01T01:46:03.806Z,62
2023-01-01T01:46:36.084Z,62
2023-01-01T01:47:07.949Z,62
2023-01-01T01:47:39.864Z,62
2023-01-01T01:48:11.723Z,62
2023-01-01T01:48:43.798Z,62
2023-01-01T01:49:15.775Z,62
2023-01-01T01:49:47.753Z,62
2023-01-01T01:50:19.648Z,62
2023-01-01T01:50:51.686Z,62
2023-01-01T01:51:23.785Z,62
2023-01-01T01:51:55.754Z,62
2023-01-01T01:52:27.562Z,62
2023-01-01T01:52:59.533Z,61
2023-01-01T01:53:31.606Z,61
2023-01-01T01:54:03.583Z,61
2023-01-01T01:54:35.471Z,61
2023-01-01T01:55:07.485Z,61
2023-01-01T01:55:39.499Z,62
2023-01-01T01:56:11.534Z,62
2023-01-01T01:56:43.388Z,62
2023-01-01T01:57:15.406Z,62
2023-01-01T01:57:47.379Z,62
2023-01-01T01:58:19.458Z,62
2023-01-01T01:58:51.293Z,62
2023-01-01T01:59:23.271Z,62
2023-01-01T01:59:55.357Z,62
2023-01-01T02:00:27.550Z,62
2023-01-01T02:00:59.288Z,62
2023-01-01T02:01:31.350Z,62
2023-01-01T02:02:03.428Z,62
2023-01-01T02:02:35.553Z,62
2023-01-01T02:03:07.137Z,62
2023-01-01T02:03:39.132Z,62
2023-01-01T02:04:11.207Z,62
2023-01-01T02:04:43.239Z,63
2023-01-01T02:05:15.032Z,62
2023-01-01T02:05:47.012Z,62
2023-01-01T02:06:19.107Z,62
2023-01-01T02:06:51.127Z,63
2023-01-01T02:07:22.885Z,63
2023-01-01T02:07:54.928Z,63
2023-01-01T02:08:26.991Z,63
2023-01-01T02:08:59.064Z,63
2023-01-01T02:09:30.886Z,63
2023-01-01T02:10:02.862Z,63
2023-01-01T02:10:34.946Z,63
2023-01-01T02:11:06.767Z,63
2023-01-01T02:11:38.809Z,63
2023-01-01T02:12:10.828Z,63
2023-01-01T02:12:42.872Z,63
2023-01-01T02:13:14.707Z,63
2023-01-01T02:13:58.838Z,63
2023-01-01T02:14:18.694Z,63
2023-01-01T02:14:50.706Z,63
2023-01-01T02:15:22.729Z,63
2023-01-01T02:15:54.614Z,63
2023-01-01T02:16:26.657Z,63
2023-01-01T02:16:58.606Z,63
2023-01-01T02:17:35.419Z,63
2023-01-01T02:18:02.565Z,63
2023-01-01T02:18:35.053Z,63
2023-01-01T02:19:06.696Z,63
2023-01-01T02:19:38.470Z,63
2023-01-01T02:20:10.414Z,63
2023-01-01T02:20:42.451Z,63
2023-01-01T02:21:14.512Z,63
2023-01-01T02:21:46.296Z,63
2023-01-01T02:22:18.359Z,63
2023-01-01T02:22:50.349Z,63
2023-01-01T02:23:22.368Z,63
2023-01-01T02:23:54.189Z,63
2023-01-01T02:24:26.297Z,63
2023-01-01T02:24:58.270Z,63
2023-01-01T02:25:30.335Z,63
2023-01-01T02:26:02.154Z,63
2023-01-01T02:26:34.144Z,63
2023-01-01T02:27:06.227Z,63
2023-01-01T02:27:38.248Z,63
2023-01-01T02:28:10.856Z,63
2023-01-01T02:28:42.129Z,63
2023-01-01T02:29:14.170Z,63
2023-01-01T02:29:46.139Z,63
2023-01-01T02:30:18.289Z,63
2023-01-01T02:30:49.984Z,64
2023-01-01T02:31:23.579Z,63
2023-01-01T02:31:54.081Z,63
2023-01-01T02:32:25.950Z,64
2023-01-01T02:32:58.280Z,64
2023-01-01T02:33:29.948Z,63
2023-01-01T02:34:01.961Z,63
2023-01-01T02:34:33.828Z,63
2023-01-01T02:35:05.831Z,63
2023-01-01T02:35:37.886Z,63
2023-01-01T02:36:09.743Z,63
2023-01-01T02:36:41.763Z,63
2023-01-01T02:37:13.772Z,63
2023-01-01T02:37:45.938Z,63
2023-01-01T02:38:17.592Z,63
2023-01-01T02:38:49.638Z,64
2023-01-01T02:39:22.227Z,64
2023-01-01T02:39:53.706Z,64
2023-01-01T02:40:25.533Z,64
2023-01-01T02:40:57.554Z,64
2023-01-01T02:41:29.627Z,64
2023-01-01T02:42:01.636Z,64
2023-01-01T02:42:33.484Z,64
2023-01-01T02:43:05.493Z,64
2023-01-01T02:43:37.547Z,64
2023-01-01T02:44:09.909Z,64
2023-01-01T02:44:41.435Z,65
2023-01-01T02:45:13.552Z,65
2023-01-01T02:45:45.490Z,65
2023-01-01T02:46:49.273Z,65
2023-01-01T02:47:21.308Z,65
2023-01-01T02:47:53.355Z,65
2023-01-01T02:48:25.232Z,65
2023-01-01T02:48:58.257Z,65
2023-01-01T02:49:29.288Z,65
2023-01-01T02:50:01.592Z,65
2023-01-01T02:50:33.064Z,65
2023-01-01T02:51:05.175Z,65
2023-01-01T02:51:37.197Z,65
2023-01-01T02:52:09.311Z,65
2023-01-01T02:52:41.105Z,64
2023-01-01T02:53:13.052Z,64
2023-01-01T02:53:45.097Z,64
2023-01-01T02:54:17.137Z,64
2023-01-01T02:54:48.971Z,64
2023-01-01T02:55:20.970Z,64
2023-01-01T02:55:52.947Z,64
2023-01-01T02:56:24.984Z,64
2023-01-01T02:56:56.855Z,64
2023-01-01T02:57:28.899Z,64
2023-01-01T02:58:00.912Z,64
2023-01-01T02:58:32.948Z,64
2023-01-01T02:59:04.710Z,64
2023-01-01T02:59:36.814Z,64
2023-01-01T03:00:09.439Z,64
2023-01-01T03:00:40.915Z,63
2023-01-01T03:01:12.786Z,63
2023-01-01T03:01:44.741Z,63
2023-01-01T03:02:16.855Z,63
2023-01-01T03:02:51.141Z,64
2023-01-01T03:03:20.779Z,64
2023-01-01T03:03:52.608Z,63
2023-01-01T03:04:24.835Z,63
2023-01-01T03:04:56.776Z,63
2023-01-01T03:05:28.517Z,63
2023-01-01T03:06:00.472Z,63
2023-01-01T03:06:32.521Z,63
2023-01-01T03:07:04.645Z,63
2023-01-01T03:07:36.429Z,63
2023-01-01T03:08:08.473Z,63
2023-01-01T03:08:40.499Z,63
2023-01-01T03:09:12.333Z,63
2023-01-01T03:09:44.320Z,63
2023-01-01T03:10:16.409Z,64
2023-01-01T03:10:48.353Z,63
2023-01-01T03:11:20.206Z,63
2023-01-01T03:11:52.213Z,64
2023-01-01T03:12:24.394Z,63
2023-01-01T03:12:56.321Z,63
2023-01-01T03:13:28.129Z,63
2023-01-01T03:14:00.229Z,63
2023-01-01T03:14:32.240Z,63
2023-01-01T03:15:04.475Z,63
2023-01-01T03:15:36.070Z,63
2023-01-01T03:16:08.145Z,63
2023-01-01T03:16:40.173Z,63
2023-01-01T03:17:12.093Z,63
2023-01-01T03:17:43.925Z,63
2023-01-01T03:18:15.978Z,63
2023-01-01T03:18:47.987Z,63
2023-01-01T03:19:20.066Z,63
2023-01-01T03:19:51.848Z,63
2023-01-01T03:20:23.899Z,63
2023-01-01T03:20:55.942Z,63
2023-01-01T03:21:27.934Z,63
2023-01-01T03:21:59.788Z,63
2023-01-01T03:22:31.805Z,63
2023-01-01T03:23:03.794Z,63
2023-01-01T03:23:35.949Z,63
2023-01-01T03:24:07.726Z,63
2023-01-01T03:24:39.743Z,63
2023-01-01T03:25:11.744Z,63
2023-01-01T03:25:43.719Z,63
2023-01-01T03:26:15.725Z,63
2023-01-01T03:26:47.680Z,62
2023-01-01T03:27:19.704Z,63
2023-01-01T03:27:51.737Z,63
2023-01-01T03:28:23.545Z,63
2023-01-01T03:28:55.531Z,63
2023-01-01T03:29:27.581Z,63
2023-01-01T03:29:59.455Z,63
2023-01-01T03:30:32.057Z,63
2023-01-01T03:31:03.527Z,63
2023-01-01T03:31:36.990Z,63
2023-01-01T03:32:07.424Z,63
2023-01-01T03:32:39.453Z,63
2023-01-01T03:33:11.370Z,63
2023-01-01T03:33:43.387Z,63
2023-01-01T03:34:15.207Z,63
2023-01-01T03:34:47.245Z,63
2023-01-01T03:35:19.818Z,63
2023-01-01T03:35:51.303Z,63
2023-01-01T03:36:23.268Z,63
2023-01-01T03:36:55.230Z,63
2023-01-01T03:37:27.258Z,63
2023-01-01T03:37:59.285Z,63
2023-01-01T03:38:31.076Z,62
2023-01-01T03:39:03.088Z,63
2023-01-01T03:39:36.666Z,63
2023-01-01T03:40:07.228Z,63
2023-01-01T03:40:39.038Z,63
2023-01-01T03:41:11.008Z,63
2023-01-01T03:41:43.021Z,63
2023-01-01T03:42:15.058Z,63
2023-01-01T03:42:46.970Z,63
2023-01-01T03:43:19.012Z,63
2023-01-01T03:43:50.979Z,63
2023-01-01T03:44:23.015Z,63
2023-01-01T03:44:54.794Z,63
2023-01-01T03:45:27.051Z,63
2023-01-01T03:45:58.933Z,63
2023-01-01T03:46:30.986Z,63
2023-01-01T03:47:02.784Z,63
2023-01-01T03:47:34.785Z,63
2023-01-01T03:48:06.801Z,63
2023-01-01T03:48:38.873Z,63
2023-01-01T03:49:10.661Z,63
2023-01-01T03:49:42.686Z,63
2023-01-01T03:50:14.711Z,63
2023-01-01T03:50:46.687Z,63
2023-01-01T03:51:18.523Z,63
2023-01-01T03:51:50.589Z,63
2023-01-01T03:52:22.636Z,63
2023-01-01T03:52:54.673Z,63
2023-01-01T03:53:26.496Z,63
2023-01-01T03:53:58.501Z,63
2023-01-01T03:54:30.531Z,63
2023-01-01T03:55:02.607Z,63
2023-01-01T03:55:34.975Z,63
2023-01-01T03:56:06.490Z,63
2023-01-01T03:56:38.502Z,64
2023-01-01T03:57:10.470Z,63
2023-01-01T03:57:42.323Z,64
2023-01-01T03:58:14.363Z,64
2023-01-01T03:58:46.380Z,64
2023-01-01T03:59:18.342Z,64
2023-01-01T03:59:50.234Z,64
2023-01-01T04:00:22.437Z,64
2023-01-01T04:00:54.273Z,64
2023-01-01T04:01:26.216Z,63
2023-01-01T04:01:58.402Z,64
2023-01-01T04:02:30.232Z,64
2023-01-01T04:03:02.247Z,64
2023-01-01T04:03:34.026Z,64
2023-01-01T04:04:06.113Z,64
2023-01-01T04:04:38.077Z,64
2023-01-01T04:05:10.107Z,64
2023-01-01T04:05:42.130Z,64
2023-01-01T04:06:13.927Z,64
2023-01-01T04:06:46.001Z,64
2023-01-01T04:07:17.981Z,65
2023-01-01T04:08:22.058Z,64
2023-01-01T04:08:53.895Z,64
2023-01-01T04:09:25.917Z,64
2023-01-01T04:09:58.329Z,64
2023-01-01T04:10:29.833Z,64
2023-01-01T04:11:01.820Z,64
2023-01-01T04:11:33.901Z,64
2023-01-01T04:12:05.701Z,64
2023-01-01T04:12:37.777Z,64
2023-01-01T04:13:09.762Z,64
2023-01-01T04:13:41.756Z,64
2023-01-01T04:14:13.611Z,64
2023-01-01T04:14:45.626Z,64
2023-01-01T04:15:17.840Z,64
2023-01-01T04:15:49.713Z,64
2023-01-01T04:16:21.892Z,64
2023-01-01T04:16:53.546Z,64
2023-01-01T04:17:25.558Z,64
2023-01-01T04:17:57.725Z,65
2023-01-01T04:18:29.440Z,65
2023-01-01T04:19:01.397Z,65
2023-01-01T04:19:33.486Z,65
2023-01-01T04:20:05.522Z,65
2023-01-01T04:20:37.351Z,65
2023-01-01T04:21:09.339Z,64
2023-01-01T04:21:41.399Z,65
2023-01-01T04:22:13.395Z,64
2023-01-01T04:22:45.281Z,65
2023-01-01T04:23:17.232Z,65
2023-01-01T04:23:49.319Z,65
2023-01-01T04:24:21.316Z,65
2023-01-01T04:24:53.173Z,65
2023-01-01T04:25:25.187Z,65
2023-01-01T04:25:57.254Z,65
2023-01-01T04:26:29.241Z,65
2023-01-01T04:27:01.088Z,65
2023-01-01T04:27:33.073Z,65
2023-01-01T04:28:05.164Z,65
2023-01-01T04:28:37.200Z,65
2023-01-01T04:29:09.009Z,65
2023-01-01T04:29:41.059Z,65
2023-01-01T04:30:13.465Z,65
2023-01-01T04:30:45.080Z,65
2023-01-01T04:31:16.852Z,65
2023-01-01T04:31:48.947Z,65
2023-01-01T04:32:20.947Z,65
2023-01-01T04:32:52.997Z,65
2023-01-01T04:33:24.752Z,65
2023-01-01T04:33:56.835Z,65
2023-01-01T04:34:28.899Z,65
2023-01-01T04:35:01.169Z,66
2023-01-01T04:35:32.752Z,66
2023-01-01T04:36:04.785Z,66
2023-01-01T04:36:36.824Z,66
2023-01-01T04:37:12.899Z,66
2023-01-01T04:37:40.650Z,66
2023-01-01T04:38:12.681Z,66
2023-01-01T04:38:44.664Z,66
2023-01-01T04:39:16.506Z,66
2023-01-01T04:39:48.568Z,66
2023-01-01T04:40:20.565Z,66
2023-01-01T04:40:52.601Z,66
2023-01-01T04:41:24.394Z,66
2023-01-01T04:41:56.479Z,66
2023-01-01T04:42:28.501Z,66
2023-01-01T04:43:00.558Z,66
2023-01-01T04:43:32.352Z,66
2023-01-01T04:44:04.412Z,66
2023-01-01T04:44:36.531Z,66
2023-01-01T04:45:08.819Z,66
2023-01-01T04:45:40.375Z,66
2023-01-01T04:46:12.360Z,67
2023-01-01T04:46:44.329Z,66
2023-01-01T04:47:16.359Z,66
2023-01-01T04:47:48.223Z,67
2023-01-01T04:48:20.164Z,67
2023-01-01T04:48:52.285Z,67
2023-01-01T04:49:24.234Z,67
2023-01-01T04:49:56.118Z,67
2023-01-01T04:50:28.136Z,67
2023-01-01T04:51:00.154Z,67
2023-01-01T04:51:32.187Z,67
2023-01-01T04:52:04.149Z,67
2023-01-01T04:52:36.099Z,67
2023-01-01T04:53:08.048Z,67
2023-01-01T04:53:40.052Z,67
2023-01-01T04:54:15.941Z,67
2023-01-01T04:54:43.944Z,67
2023-01-01T04:55:15.982Z,67
2023-01-01T04:55:48.933Z,67
2023-01-01T04:56:19.866Z,67
2023-01-01T04:56:52.723Z,67
2023-01-01T04:57:23.897Z,67
2023-01-01T04:57:56.669Z,67
2023-01-01T04:58:27.747Z,67
2023-01-01T04:59:00.719Z,67
2023-01-01T04:59:31.790Z,67
2023-01-01T05:00:05.314Z,67
2023-01-01T05:00:35.746Z,67
2023-01-01T05:01:08.715Z,67
2023-01-01T05:01:39.791Z,67
2023-01-01T05:02:12.721Z,67
2023-01-01T05:02:43.678Z,67
2023-01-01T05:03:16.486Z,67
2023-01-01T05:03:47.619Z,67
2023-01-01T05:04:20.585Z,67
2023-01-01T05:04:51.486Z,67
2023-01-01T05:05:24.321Z,67
2023-01-01T05:05:55.512Z,67
2023-01-01T05:06:28.338Z,67
2023-01-01T05:06:59.377Z,67
2023-01-01T05:07:32.744Z,67
2023-01-01T05:08:03.517Z,68
2023-01-01T05:08:36.449Z,68
2023-01-01T05:09:07.316Z,68
2023-01-01T05:09:40.203Z,68
2023-01-01T05:10:11.387Z,68
2023-01-01T05:10:44.168Z,68
2023-01-01T05:11:15.270Z,68
2023-01-01T05:11:48.305Z,68
2023-01-01T05:12:19.343Z,68
2023-01-01T05:12:52.039Z,68
2023-01-01T05:13:23.156Z,68
2023-01-01T05:13:56.089Z,68
2023-01-01T05:14:27.170Z,68
2023-01-01T05:14:59.884Z,68
2023-01-01T05:15:31.244Z,68
2023-01-01T05:16:04.102Z,68
2023-01-01T05:16:35.193Z,68
2023-01-01T05:17:07.798Z,68
2023-01-01T05:17:38.961Z,68
2023-01-01T05:18:12.016Z,68
2023-01-01T05:18:43.056Z,68
2023-01-01T05:19:15.742Z,68
2023-01-01T05:19:46.850Z,68
2023-01-01T05:20:19.825Z,68
2023-01-01T05:20:50.933Z,68
2023-01-01T05:21:24.038Z,68
2023-01-01T05:21:54.827Z,68
2023-01-01T05:22:27.646Z,68
2023-01-01T05:22:58.853Z,68
2023-01-01T05:23:31.705Z,68
2023-01-01T05:24:02.696Z,68
2023-01-01T05:24:35.915Z,68
2023-01-01T05:25:06.786Z,68
2023-01-01T05:25:39.524Z,68
2023-01-01T05:26:10.606Z,68
2023-01-01T05:26:43.457Z,68
2023-01-01T05:27:14.625Z,68
2023-01-01T05:27:47.424Z,68
2023-01-01T05:28:18.586Z,68
2023-01-01T05:28:51.504Z,68
2023-01-01T05:29:22.600Z,68
2023-01-01T05:29:56.138Z,68
2023-01-01T05:30:26.612Z,68
2023-01-01T05:30:59.319Z,68
2023-01-01T05:31:30.537Z,68
2023-01-01T05:32:03.445Z,68
2023-01-01T05:32:34.740Z,68
2023-01-01T05:33:07.363Z,68
2023-01-01T05:33:38.439Z,68
2023-01-01T05:34:11.058Z,68
2023-01-01T05:34:42.218Z,68
2023-01-01T05:35:15.175Z,68
2023-01-01T05:35:46.417Z,68
2023-01-01T05:36:19.125Z,68
2023-01-01T05:36:50.180Z,68
2023-01-01T05:37:23.105Z,69
2023-01-01T05:37:54.241Z,68
2023-01-01T05:38:27.221Z,68
2023-01-01T05:38:58.159Z,68
2023-01-01T05:39:31.053Z,69
2023-01-01T05:40:02.116Z,69
2023-01-01T05:40:35.131Z,69
2023-01-01T05:41:06.023Z,69
2023-01-01T05:41:38.966Z,69
2023-01-01T05:42:10.199Z,69
2023-01-01T05:42:42.827Z,69
2023-01-01T05:43:13.897Z,69
2023-01-01T05:43:47.284Z,69
2023-01-01T05:44:17.782Z,69
2023-01-01T05:44:50.624Z,69
2023-01-01T05:45:22.015Z,69
2023-01-01T05:45:54.806Z,69
2023-01-01T05:46:25.759Z,70
2023-01-01T05:46:58.891Z,70
2023-01-01T05:47:30.015Z,70
2023-01-01T05:48:02.556Z,70
2023-01-01T05:48:33.741Z,70
2023-01-01T05:49:06.581Z,70
2023-01-01T05:49:37.696Z,70
2023-01-01T05:50:41.527Z,70
2023-01-01T05:51:14.497Z,70
2023-01-01T05:51:45.680Z,70
2023-01-01T05:52:24.553Z,70
2023-01-01T05:52:49.527Z,70
2023-01-01T05:53:22.734Z,70
2023-01-01T05:53:53.558Z,70
2023-01-01T05:54:26.301Z,70
2023-01-01T05:54:57.399Z,70
2023-01-01T05:55:30.319Z,70
2023-01-01T05:56:01.490Z,70
2023-01-01T05:56:34.580Z,70
2023-01-01T05:57:05.334Z,70
2023-01-01T05:57:38.261Z,70
2023-01-01T05:58:10.037Z,70
2023-01-01T05:58:42.187Z,70
2023-01-01T05:59:13.184Z,70
2023-01-01T05:59:46.518Z,70
2023-01-01T06:00:17.874Z,70
2023-01-01T06:00:50.032Z,70
2023-01-01T06:01:21.219Z,70
2023-01-01T06:01:54.185Z,70
2023-01-01T06:02:25.371Z,70
2023-01-01T06:02:57.913Z,70
2023-01-01T06:03:29.073Z,70
2023-01-01T06:04:02.052Z,70
2023-01-01T06:04:33.198Z,70
2023-01-01T06:05:05.875Z,70
2023-01-01T06:05:36.954Z,69
2023-01-01T06:06:09.903Z,70
2023-01-01T06:06:41.070Z,70
2023-01-01T06:07:13.736Z,70
2023-01-01T06:07:48.377Z,69
2023-01-01T06:08:17.819Z,70
2023-01-01T06:08:49.320Z,70
2023-01-01T06:09:21.581Z,70
2023-01-01T06:09:52.784Z,70
2023-01-01T06:10:25.728Z,70
2023-01-01T06:10:56.842Z,70
2023-01-01T06:11:29.572Z,70
2023-01-01T06:12:00.705Z,70
2023-01-01T06:12:33.689Z,70
2023-01-01T06:13:11.166Z,70
2023-01-01T06:13:37.461Z,70
2023-01-01T06:14:08.669Z,70
2023-01-01T06:14:41.624Z,70
2023-01-01T06:15:12.859Z,70
2023-01-01T06:15:45.412Z,70
2023-01-01T06:16:16.576Z,70
2023-01-01T06:16:49.606Z,70
2023-01-01T06:17:20.598Z,70
2023-01-01T06:17:53.238Z,70
2023-01-01T06:18:24.479Z,70
2023-01-01T06:18:57.572Z,70
2023-01-01T06:19:28.336Z,70
2023-01-01T06:20:01.510Z,70
2023-01-01T06:20:32.401Z,70
2023-01-01T06:21:05.331Z,70
2023-01-01T06:21:36.184Z,70
2023-01-01T06:22:09.095Z,70
2023-01-01T06:22:40.241Z,69
2023-01-01T06:23:13.199Z,70
2023-01-01T06:23:44.153Z,70
2023-01-01T06:24:17.021Z,69
2023-01-01T06:24:48.200Z,69
2023-01-01T06:25:21.100Z,69
2023-01-01T06:25:52.051Z,69
2023-01-01T06:26:24.995Z,69
2023-01-01T06:26:56.073Z,69
2023-01-01T06:27:28.993Z,69
2023-01-01T06:27:59.982Z,69
2023-01-01T06:28:32.988Z,69
2023-01-01T06:29:04.078Z,70
2023-01-01T06:29:36.911Z,70
2023-01-01T06:30:08.241Z,70
2023-01-01T06:30:41.691Z,70
2023-01-01T06:31:11.943Z,69
2023-01-01T06:31:44.879Z,70
2023-01-01T06:32:15.735Z,70
2023-01-01T06:32:48.729Z,70
2023-01-01T06:33:19.855Z,70
2023-01-01T06:33:52.759Z,70
2023-01-01T06:34:23.698Z,70
2023-01-01T06:34:56.621Z,70
2023-01-01T06:35:27.706Z,70
2023-01-01T06:36:00.693Z,70
2023-01-01T06:36:31.672Z,69
2023-01-01T06:37:06.947Z,69
2023-01-01T06:37:35.643Z,69
2023-01-01T06:38:08.628Z,69
2023-01-01T06:38:39.557Z,69
2023-01-01T06:39:12.410Z,69
2023-01-01T06:39:43.551Z,69
2023-01-01T06:40:16.507Z,69
2023-01-01T06:40:47.387Z,69
2023-01-01T06:41:20.262Z,69
2023-01-01T06:41:51.493Z,69
2023-01-01T06:42:27.847Z,69
2023-01-01T06:42:55.323Z,70
2023-01-01T06:43:28.402Z,70
2023-01-01T06:43:59.469Z,69
2023-01-01T06:44:32.363Z,69
2023-01-01T06:45:03.452Z,69
2023-01-01T06:45:36.212Z,70
2023-01-01T06:46:07.382Z,69
2023-01-01T06:46:40.231Z,69
2023-01-01T06:47:11.171Z,69
2023-01-01T06:47:44.076Z,69
2023-01-01T06:48:15.311Z,69
2023-01-01T06:48:48.302Z,69
2023-01-01T06:49:19.112Z,69
2023-01-01T06:49:51.984Z,69
2023-01-01T06:50:23.165Z,69
2023-01-01T06:50:56.067Z,69
2023-01-01T06:51:27.188Z,69
2023-01-01T06:51:59.949Z,69
2023-01-01T06:52:31.088Z,69
2023-01-01T06:53:03.769Z,69
2023-01-01T06:53:34.927Z,69
2023-01-01T06:54:07.845Z,69
2023-01-01T06:54:38.956Z,69
2023-01-01T06:55:11.923Z,69
2023-01-01T06:55:42.826Z,69
2023-01-01T06:56:15.679Z,69
2023-01-01T06:56:46.902Z,69
2023-01-01T06:57:19.611Z,69
2023-01-01T06:57:50.673Z,69
2023-01-01T06:58:23.677Z,69
2023-01-01T06:58:54.970Z,69
2023-01-01T06:59:27.596Z,69
2023-01-01T06:59:58.686Z,69
2023-01-01T07:00:31.738Z,69
2023-01-01T07:01:08.123Z,69
2023-01-01T07:01:36.735Z,69
2023-01-01T07:02:06.764Z,69
2023-01-01T07:02:40.100Z,69
2023-01-01T07:03:10.970Z,69
2023-01-01T07:03:43.569Z,69
2023-01-01T07:04:14.490Z,69
2023-01-01T07:04:47.376Z,69
2023-01-01T07:05:18.587Z,69
2023-01-01T07:05:51.251Z,69
2023-01-01T07:06:22.431Z,69
2023-01-01T07:06:55.379Z,69
2023-01-01T07:07:31.120Z,69
2023-01-01T07:07:59.142Z,69
2023-01-01T07:08:30.364Z,69
2023-01-01T07:09:03.291Z,69
2023-01-01T07:09:34.340Z,69
2023-01-01T07:10:07.136Z,69
2023-01-01T07:10:38.339Z,69
2023-01-01T07:11:11.169Z,69
2023-01-01T07:11:42.313Z,69
2023-01-01T07:12:15.823Z,69
2023-01-01T07:12:46.183Z,69
2023-01-01T07:13:19.890Z,69
2023-01-01T07:13:50.304Z,69
2023-01-01T07:14:22.831Z,70
2023-01-01T07:14:54.023Z,70
2023-01-01T07:15:27.132Z,70
2023-01-01T07:15:58.227Z,70
2023-01-01T07:16:30.935Z,70
2023-01-01T07:17:01.992Z,70
2023-01-01T07:17:35.147Z,70
2023-01-01T07:18:06.140Z,70
2023-01-01T07:18:38.849Z,70
2023-01-01T07:19:10.115Z,70
2023-01-01T07:19:42.735Z,70
2023-01-01T07:20:13.951Z,70
2023-01-01T07:20:46.697Z,70
2023-01-01T07:21:17.845Z,70
2023-01-01T07:21:50.768Z,70
2023-01-01T07:22:21.692Z,70
2023-01-01T07:22:54.586Z,70
2023-01-01T07:23:25.779Z,70
2023-01-01T07:24:00.135Z,70
2023-01-01T07:24:29.616Z,70
2023-01-01T07:25:02.488Z,70
2023-01-01T07:25:33.655Z,70
2023-01-01T07:26:06.712Z,70
2023-01-01T07:26:37.529Z,70
2023-01-01T07:27:10.454Z,70
2023-01-01T07:27:41.595Z,70
2023-01-01T07:28:14.609Z,70
2023-01-01T07:28:45.540Z,70
2023-01-01T07:29:18.386Z,69
2023-01-01T07:29:49.520Z,70
2023-01-01T07:30:23.236Z,70
2023-01-01T07:30:53.322Z,70
2023-01-01T07:31:26.324Z,69
2023-01-01T07:31:57.384Z,69
2023-01-01T07:32:30.395Z,69
2023-01-01T07:33:01.286Z,70
2023-01-01T07:33:34.213Z,69
2023-01-01T07:34:05.338Z,69
2023-01-01T07:34:38.318Z,69
2023-01-01T07:35:09.192Z,69
2023-01-01T07:35:42.260Z,70
2023-01-01T07:36:13.235Z,70
2023-01-01T07:36:46.117Z,70
2023-01-01T07:37:17.066Z,70
2023-01-01T07:37:50.047Z,70